RYR44JG LPPR-LEZL
Flight info
| Callsign | RYR44JG |
|---|---|
| Flight time | 1h 2m |
| Altitude | 35000 |
| Route | MANIK DCT MINTA/N0430F340 DCT OSLEP |
| Aircraft | B738/M-SDE2E3FGHIRWXY/LB1 |
Departure
| Time | 2026-04-15 15:35 |
|---|---|
| Airport | Francisco de Sá Carneiro Airport (LPPR) |
Arrival
| Time | 2026-04-15 16:38 |
|---|---|
| Airport | Seville Airport (LEZL) |
| Time | Latitude | Longitude | Altitude | Speed | Heading |
|---|---|---|---|---|---|
| 2026-04-15 15:04 | 41.23924 | -8.67322 | 241 ft | 0 kts | 123° |
| 2026-04-15 15:26 | 41.23925 | -8.67325 | 241 ft | 2 kts | 123° |
| 2026-04-15 15:26 | 41.23935 | -8.67345 | 241 ft | 2 kts | 124° |
| 2026-04-15 15:26 | 41.23947 | -8.67367 | 241 ft | 2 kts | 124° |
| 2026-04-15 15:27 | 41.23959 | -8.67389 | 241 ft | 3 kts | 130° |
| 2026-04-15 15:27 | 41.23972 | -8.67408 | 241 ft | 3 kts | 146° |
| 2026-04-15 15:27 | 41.23989 | -8.67419 | 241 ft | 3 kts | 176° |
| 2026-04-15 15:27 | 41.24008 | -8.67420 | 241 ft | 3 kts | 179° |
| 2026-04-15 15:28 | 41.24014 | -8.67420 | 241 ft | 1 kts | 179° |
| 2026-04-15 15:30 | 41.24013 | -8.67420 | 241 ft | 1 kts | 179° |
| 2026-04-15 15:31 | 41.23986 | -8.67429 | 241 ft | 6 kts | 210° |
| 2026-04-15 15:31 | 41.23950 | -8.67488 | 237 ft | 7 kts | 266° |
| 2026-04-15 15:31 | 41.23974 | -8.67517 | 238 ft | 5 kts | 353° |
| 2026-04-15 15:31 | 41.24042 | -8.67534 | 236 ft | 14 kts | 349° |
| 2026-04-15 15:32 | 41.24156 | -8.67562 | 236 ft | 19 kts | 349° |
| 2026-04-15 15:32 | 41.24275 | -8.67654 | 231 ft | 23 kts | 310° |
| 2026-04-15 15:32 | 41.24421 | -8.67738 | 224 ft | 25 kts | 349° |
| 2026-04-15 15:32 | 41.24597 | -8.67787 | 214 ft | 25 kts | 348° |
| 2026-04-15 15:33 | 41.24777 | -8.67846 | 213 ft | 28 kts | 338° |
| 2026-04-15 15:33 | 41.24943 | -8.67934 | 195 ft | 25 kts | 346° |
| 2026-04-15 15:33 | 41.25123 | -8.67975 | 188 ft | 28 kts | 348° |
| 2026-04-15 15:33 | 41.25323 | -8.68028 | 180 ft | 29 kts | 349° |
| 2026-04-15 15:34 | 41.25506 | -8.68075 | 172 ft | 28 kts | 349° |
| 2026-04-15 15:34 | 41.25660 | -8.68143 | 169 ft | 17 kts | 311° |
| 2026-04-15 15:34 | 41.25659 | -8.68288 | 172 ft | 16 kts | 246° |
| 2026-04-15 15:34 | 41.25560 | -8.68321 | 174 ft | 16 kts | 169° |
| 2026-04-15 15:35 | 41.25404 | -8.68281 | 176 ft | 50 kts | 168° |
| 2026-04-15 15:35 | 41.24804 | -8.68125 | 205 ft | 123 kts | 169° |
| 2026-04-15 15:35 | 41.23763 | -8.67868 | 390 ft | 170 kts | 172° |
| 2026-04-15 15:35 | 41.22521 | -8.67580 | 1092 ft | 192 kts | 172° |
| 2026-04-15 15:36 | 41.21176 | -8.67273 | 2011 ft | 204 kts | 171° |
| 2026-04-15 15:36 | 41.19690 | -8.66870 | 2292 ft | 229 kts | 169° |
| 2026-04-15 15:36 | 41.18099 | -8.66427 | 2797 ft | 237 kts | 169° |
| 2026-04-15 15:36 | 41.16462 | -8.65976 | 3375 ft | 241 kts | 169° |
| 2026-04-15 15:37 | 41.14807 | -8.65526 | 3963 ft | 245 kts | 169° |
| 2026-04-15 15:37 | 41.13151 | -8.65082 | 4560 ft | 248 kts | 170° |
| 2026-04-15 15:37 | 41.11450 | -8.64629 | 5166 ft | 250 kts | 170° |
| 2026-04-15 15:37 | 41.09732 | -8.64174 | 5763 ft | 252 kts | 170° |
| 2026-04-15 15:38 | 41.08000 | -8.63716 | 6386 ft | 256 kts | 171° |
| 2026-04-15 15:38 | 41.06167 | -8.63455 | 6716 ft | 272 kts | 179° |
| 2026-04-15 15:38 | 41.04250 | -8.63384 | 7357 ft | 277 kts | 181° |
| 2026-04-15 15:38 | 41.02333 | -8.63329 | 8203 ft | 278 kts | 181° |
| 2026-04-15 15:39 | 41.00382 | -8.63254 | 9020 ft | 281 kts | 181° |
| 2026-04-15 15:39 | 40.98415 | -8.63163 | 9801 ft | 284 kts | 182° |
| 2026-04-15 15:39 | 40.96448 | -8.63062 | 10544 ft | 288 kts | 182° |
| 2026-04-15 15:39 | 40.94340 | -8.62956 | 10799 ft | 311 kts | 182° |
| 2026-04-15 15:40 | 40.92124 | -8.62844 | 10990 ft | 333 kts | 181° |
| 2026-04-15 15:40 | 40.89753 | -8.62718 | 11449 ft | 344 kts | 181° |
| 2026-04-15 15:40 | 40.87343 | -8.62585 | 12124 ft | 348 kts | 182° |
| 2026-04-15 15:40 | 40.84904 | -8.62450 | 12824 ft | 352 kts | 182° |
| 2026-04-15 15:41 | 40.82438 | -8.62315 | 13505 ft | 356 kts | 182° |
| 2026-04-15 15:41 | 40.79983 | -8.62182 | 14141 ft | 360 kts | 182° |
| 2026-04-15 15:41 | 40.77440 | -8.62045 | 14740 ft | 364 kts | 182° |
| 2026-04-15 15:41 | 40.74894 | -8.61907 | 15359 ft | 367 kts | 182° |
| 2026-04-15 15:42 | 40.72359 | -8.61771 | 15977 ft | 370 kts | 182° |
| 2026-04-15 15:42 | 40.69765 | -8.61628 | 16591 ft | 374 kts | 181° |
| 2026-04-15 15:42 | 40.67166 | -8.61092 | 17165 ft | 383 kts | 171° |
| 2026-04-15 15:42 | 40.64570 | -8.60183 | 17785 ft | 388 kts | 168° |
| 2026-04-15 15:43 | 40.61965 | -8.59187 | 18377 ft | 392 kts | 168° |
| 2026-04-15 15:43 | 40.59331 | -8.58164 | 18897 ft | 396 kts | 168° |
| 2026-04-15 15:43 | 40.56704 | -8.57152 | 19419 ft | 398 kts | 168° |
| 2026-04-15 15:43 | 40.54026 | -8.56138 | 19948 ft | 401 kts | 168° |
| 2026-04-15 15:44 | 40.51326 | -8.55132 | 20464 ft | 404 kts | 168° |
| 2026-04-15 15:44 | 40.48600 | -8.54128 | 20966 ft | 407 kts | 168° |
| 2026-04-15 15:44 | 40.45890 | -8.53139 | 21460 ft | 410 kts | 168° |
| 2026-04-15 15:44 | 40.43127 | -8.52136 | 21960 ft | 413 kts | 168° |
| 2026-04-15 15:45 | 40.40335 | -8.51125 | 22449 ft | 415 kts | 168° |
| 2026-04-15 15:45 | 40.37532 | -8.50112 | 22910 ft | 419 kts | 168° |
| 2026-04-15 15:45 | 40.34747 | -8.49107 | 23356 ft | 422 kts | 168° |
| 2026-04-15 15:45 | 40.31896 | -8.48079 | 23828 ft | 425 kts | 168° |
| 2026-04-15 15:46 | 40.29033 | -8.47047 | 24224 ft | 427 kts | 169° |
| 2026-04-15 15:46 | 40.26152 | -8.46010 | 24641 ft | 429 kts | 169° |
| 2026-04-15 15:46 | 40.23263 | -8.44970 | 25056 ft | 430 kts | 169° |
| 2026-04-15 15:46 | 40.20399 | -8.43941 | 25431 ft | 433 kts | 169° |
| 2026-04-15 15:47 | 40.17488 | -8.42895 | 25776 ft | 435 kts | 169° |
| 2026-04-15 15:47 | 40.15546 | -8.42198 | 26043 ft | 436 kts | 169° |
| 2026-04-15 15:47 | 40.12499 | -8.41105 | 26456 ft | 437 kts | 169° |
| 2026-04-15 15:47 | 40.09553 | -8.40049 | 26787 ft | 440 kts | 169° |
| 2026-04-15 15:48 | 40.06588 | -8.38987 | 27093 ft | 442 kts | 170° |
| 2026-04-15 15:48 | 40.03614 | -8.37922 | 27441 ft | 444 kts | 170° |
| 2026-04-15 15:48 | 40.00668 | -8.36870 | 27768 ft | 446 kts | 170° |
| 2026-04-15 15:48 | 39.97663 | -8.35799 | 28099 ft | 448 kts | 170° |
| 2026-04-15 15:49 | 39.94646 | -8.34724 | 28431 ft | 450 kts | 170° |
| 2026-04-15 15:49 | 39.91612 | -8.33643 | 28758 ft | 452 kts | 170° |
| 2026-04-15 15:49 | 39.88567 | -8.32558 | 29077 ft | 454 kts | 171° |
| 2026-04-15 15:49 | 39.85505 | -8.31469 | 29379 ft | 456 kts | 171° |
| 2026-04-15 15:50 | 39.82476 | -8.30393 | 29663 ft | 458 kts | 171° |
| 2026-04-15 15:50 | 39.79392 | -8.29295 | 29940 ft | 460 kts | 171° |
| 2026-04-15 15:50 | 39.76297 | -8.28196 | 30266 ft | 460 kts | 171° |
| 2026-04-15 15:50 | 39.73193 | -8.27097 | 30226 ft | 463 kts | 171° |
| 2026-04-15 15:51 | 39.67007 | -8.24906 | 30236 ft | 458 kts | 171° |
| 2026-04-15 15:51 | 39.60848 | -8.22727 | 30241 ft | 457 kts | 171° |
| 2026-04-15 15:52 | 39.54702 | -8.20562 | 30245 ft | 458 kts | 171° |
| 2026-04-15 15:52 | 39.48575 | -8.18407 | 30230 ft | 458 kts | 171° |
| 2026-04-15 15:53 | 39.42407 | -8.16241 | 30240 ft | 458 kts | 170° |
| 2026-04-15 15:53 | 39.36238 | -8.14078 | 30229 ft | 459 kts | 170° |
| 2026-04-15 15:54 | 39.30107 | -8.11932 | 30229 ft | 459 kts | 170° |
| 2026-04-15 15:54 | 39.23932 | -8.09774 | 30236 ft | 459 kts | 170° |
| 2026-04-15 15:55 | 39.17752 | -8.07619 | 30226 ft | 459 kts | 170° |
| 2026-04-15 15:55 | 39.11612 | -8.05481 | 30230 ft | 459 kts | 170° |
| 2026-04-15 15:56 | 39.05414 | -8.03327 | 30225 ft | 460 kts | 170° |
| 2026-04-15 15:56 | 38.99257 | -8.01192 | 30227 ft | 460 kts | 170° |
| 2026-04-15 15:57 | 38.93064 | -7.99047 | 30229 ft | 460 kts | 170° |
| 2026-04-15 15:57 | 38.86910 | -7.96921 | 30235 ft | 460 kts | 170° |
| 2026-04-15 15:58 | 38.80717 | -7.94784 | 30234 ft | 460 kts | 170° |
| 2026-04-15 15:58 | 38.74521 | -7.92651 | 30241 ft | 460 kts | 170° |
| 2026-04-15 15:59 | 38.68370 | -7.90536 | 30237 ft | 460 kts | 170° |
| 2026-04-15 15:59 | 38.62166 | -7.88407 | 30217 ft | 460 kts | 170° |
| 2026-04-15 16:00 | 38.55996 | -7.86294 | 30219 ft | 460 kts | 170° |
| 2026-04-15 16:00 | 38.49815 | -7.84181 | 30234 ft | 460 kts | 169° |
| 2026-04-15 16:01 | 38.43652 | -7.82077 | 30225 ft | 459 kts | 169° |
| 2026-04-15 16:01 | 38.37478 | -7.79974 | 30219 ft | 459 kts | 169° |
| 2026-04-15 16:02 | 38.31302 | -7.77873 | 30227 ft | 459 kts | 169° |
| 2026-04-15 16:02 | 38.25127 | -7.75777 | 30229 ft | 459 kts | 169° |
| 2026-04-15 16:03 | 38.18955 | -7.73686 | 30220 ft | 458 kts | 169° |
| 2026-04-15 16:03 | 38.12849 | -7.71619 | 30222 ft | 456 kts | 169° |
| 2026-04-15 16:04 | 38.06719 | -7.69548 | 30231 ft | 454 kts | 169° |
| 2026-04-15 16:04 | 38.00608 | -7.67488 | 30226 ft | 454 kts | 169° |
| 2026-04-15 16:05 | 37.98586 | -7.66807 | 30216 ft | 454 kts | 169° |
| 2026-04-15 16:05 | 37.88531 | -7.63428 | 30216 ft | 455 kts | 169° |
| 2026-04-15 16:06 | 37.82387 | -7.61368 | 30207 ft | 457 kts | 169° |
| 2026-04-15 16:06 | 37.76270 | -7.59320 | 30212 ft | 458 kts | 169° |
| 2026-04-15 16:07 | 37.70080 | -7.57250 | 30201 ft | 459 kts | 169° |
| 2026-04-15 16:08 | 37.60836 | -7.54167 | 30193 ft | 460 kts | 168° |
| 2026-04-15 16:08 | 37.54626 | -7.52099 | 30202 ft | 461 kts | 168° |
| 2026-04-15 16:09 | 37.48441 | -7.50044 | 30196 ft | 461 kts | 168° |
| 2026-04-15 16:09 | 37.42228 | -7.47983 | 30200 ft | 461 kts | 168° |
| 2026-04-15 16:10 | 37.36004 | -7.45921 | 30201 ft | 461 kts | 168° |
| 2026-04-15 16:10 | 37.29822 | -7.43877 | 30194 ft | 461 kts | 168° |
| 2026-04-15 16:11 | 37.23632 | -7.41834 | 30204 ft | 461 kts | 168° |
| 2026-04-15 16:11 | 37.20619 | -7.40372 | 30183 ft | 467 kts | 151° |
| 2026-04-15 16:11 | 37.18074 | -7.37825 | 30198 ft | 472 kts | 134° |
| 2026-04-15 16:11 | 37.16232 | -7.34470 | 30199 ft | 472 kts | 116° |
| 2026-04-15 16:12 | 37.15232 | -7.30615 | 30189 ft | 458 kts | 100° |
| 2026-04-15 16:12 | 37.15068 | -7.26704 | 30167 ft | 443 kts | 83° |
| 2026-04-15 16:12 | 37.15645 | -7.22976 | 30202 ft | 427 kts | 75° |
| 2026-04-15 16:12 | 37.16340 | -7.19450 | 30171 ft | 415 kts | 79° |
| 2026-04-15 16:13 | 37.16542 | -7.15916 | 30198 ft | 400 kts | 91° |
| 2026-04-15 16:13 | 37.16429 | -7.12477 | 30172 ft | 388 kts | 94° |
| 2026-04-15 16:13 | 37.16256 | -7.09152 | 30169 ft | 378 kts | 94° |
| 2026-04-15 16:14 | 37.15895 | -7.02511 | 29938 ft | 390 kts | 94° |
| 2026-04-15 16:14 | 37.15726 | -6.99096 | 29549 ft | 394 kts | 93° |
| 2026-04-15 16:14 | 37.15568 | -6.95674 | 29178 ft | 392 kts | 93° |
| 2026-04-15 16:14 | 37.15419 | -6.92267 | 28684 ft | 393 kts | 93° |
| 2026-04-15 16:15 | 37.15274 | -6.88880 | 28434 ft | 394 kts | 92° |
| 2026-04-15 16:15 | 37.15129 | -6.85428 | 28187 ft | 402 kts | 92° |
| 2026-04-15 16:15 | 37.14978 | -6.81853 | 27941 ft | 408 kts | 92° |
| 2026-04-15 16:15 | 37.14830 | -6.78345 | 27678 ft | 408 kts | 92° |
| 2026-04-15 16:16 | 37.14679 | -6.74801 | 27422 ft | 406 kts | 92° |
| 2026-04-15 16:16 | 37.14527 | -6.71276 | 27172 ft | 405 kts | 92° |
| 2026-04-15 16:16 | 37.14375 | -6.67759 | 26912 ft | 403 kts | 92° |
| 2026-04-15 16:16 | 37.14223 | -6.64261 | 26664 ft | 401 kts | 92° |
| 2026-04-15 16:17 | 37.14070 | -6.60779 | 26418 ft | 399 kts | 92° |
| 2026-04-15 16:17 | 37.13917 | -6.57320 | 26173 ft | 397 kts | 92° |
| 2026-04-15 16:17 | 37.13764 | -6.53874 | 25937 ft | 395 kts | 92° |
| 2026-04-15 16:17 | 37.13611 | -6.50440 | 25686 ft | 393 kts | 92° |
| 2026-04-15 16:18 | 37.13458 | -6.47068 | 25455 ft | 390 kts | 92° |
| 2026-04-15 16:18 | 37.13305 | -6.43683 | 25214 ft | 389 kts | 91° |
| 2026-04-15 16:18 | 37.13151 | -6.40292 | 24974 ft | 387 kts | 92° |
| 2026-04-15 16:18 | 37.12996 | -6.36931 | 24744 ft | 385 kts | 92° |
| 2026-04-15 16:19 | 37.12842 | -6.33583 | 24517 ft | 383 kts | 91° |
| 2026-04-15 16:19 | 37.12689 | -6.30289 | 24291 ft | 382 kts | 91° |
| 2026-04-15 16:19 | 37.12532 | -6.26929 | 24060 ft | 381 kts | 91° |
| 2026-04-15 16:19 | 37.12379 | -6.23672 | 23831 ft | 378 kts | 91° |
| 2026-04-15 16:20 | 37.12223 | -6.20394 | 23504 ft | 375 kts | 91° |
| 2026-04-15 16:20 | 37.12068 | -6.17134 | 23135 ft | 373 kts | 91° |
| 2026-04-15 16:20 | 37.11914 | -6.13900 | 22778 ft | 370 kts | 91° |
| 2026-04-15 16:20 | 37.11759 | -6.10683 | 22428 ft | 368 kts | 91° |
| 2026-04-15 16:21 | 37.11604 | -6.07491 | 22082 ft | 365 kts | 91° |
| 2026-04-15 16:21 | 37.11452 | -6.04361 | 21747 ft | 363 kts | 91° |
| 2026-04-15 16:21 | 37.11298 | -6.01213 | 21407 ft | 361 kts | 91° |
| 2026-04-15 16:21 | 37.11145 | -5.98084 | 21069 ft | 359 kts | 91° |
| 2026-04-15 16:22 | 37.10991 | -5.94964 | 20734 ft | 357 kts | 91° |
| 2026-04-15 16:22 | 37.10837 | -5.91869 | 20397 ft | 355 kts | 91° |
| 2026-04-15 16:22 | 37.10683 | -5.88795 | 20069 ft | 353 kts | 91° |
| 2026-04-15 16:22 | 37.10530 | -5.85737 | 19744 ft | 351 kts | 91° |
| 2026-04-15 16:23 | 37.10376 | -5.82684 | 19412 ft | 350 kts | 91° |
| 2026-04-15 16:23 | 37.10224 | -5.79686 | 19092 ft | 348 kts | 91° |
| 2026-04-15 16:23 | 37.10071 | -5.76661 | 18763 ft | 347 kts | 91° |
| 2026-04-15 16:23 | 37.09916 | -5.73643 | 18432 ft | 346 kts | 91° |
| 2026-04-15 16:24 | 37.09814 | -5.71652 | 18183 ft | 345 kts | 91° |
| 2026-04-15 16:24 | 37.09745 | -5.68096 | 17658 ft | 342 kts | 78° |
| 2026-04-15 16:24 | 37.10554 | -5.65344 | 17288 ft | 333 kts | 54° |
| 2026-04-15 16:24 | 37.12098 | -5.63236 | 16942 ft | 326 kts | 33° |
| 2026-04-15 16:25 | 37.14090 | -5.61961 | 16620 ft | 319 kts | 16° |
| 2026-04-15 16:25 | 37.16260 | -5.61523 | 16273 ft | 315 kts | 356° |
| 2026-04-15 16:25 | 37.18357 | -5.62093 | 15973 ft | 311 kts | 345° |
| 2026-04-15 16:25 | 37.20499 | -5.62226 | 15612 ft | 310 kts | 9° |
| 2026-04-15 16:26 | 37.22617 | -5.61745 | 15320 ft | 308 kts | 7° |
| 2026-04-15 16:26 | 37.24751 | -5.61446 | 14995 ft | 306 kts | 4° |
| 2026-04-15 16:26 | 37.26874 | -5.61249 | 14675 ft | 305 kts | 2° |
| 2026-04-15 16:26 | 37.28967 | -5.61095 | 14437 ft | 301 kts | 2° |
| 2026-04-15 16:27 | 37.31019 | -5.60857 | 14370 ft | 292 kts | 13° |
| 2026-04-15 16:27 | 37.32873 | -5.59778 | 13864 ft | 302 kts | 36° |
| 2026-04-15 16:27 | 37.34236 | -5.57729 | 13320 ft | 313 kts | 61° |
| 2026-04-15 16:27 | 37.34836 | -5.55072 | 12776 ft | 324 kts | 83° |
| 2026-04-15 16:28 | 37.34819 | -5.52230 | 12246 ft | 324 kts | 90° |
| 2026-04-15 16:28 | 37.34679 | -5.49412 | 11701 ft | 322 kts | 91° |
| 2026-04-15 16:28 | 37.34521 | -5.46624 | 11195 ft | 319 kts | 92° |
| 2026-04-15 16:28 | 37.34363 | -5.43870 | 10737 ft | 314 kts | 92° |
| 2026-04-15 16:29 | 37.34209 | -5.41185 | 10290 ft | 309 kts | 92° |
| 2026-04-15 16:29 | 37.34115 | -5.38510 | 9800 ft | 303 kts | 82° |
| 2026-04-15 16:29 | 37.34829 | -5.36097 | 9299 ft | 294 kts | 50° |
| 2026-04-15 16:29 | 37.36408 | -5.34567 | 8808 ft | 287 kts | 19° |
| 2026-04-15 16:30 | 37.38362 | -5.34313 | 8365 ft | 283 kts | 354° |
| 2026-04-15 16:30 | 37.40289 | -5.34785 | 7913 ft | 281 kts | 342° |
| 2026-04-15 16:30 | 37.41993 | -5.35827 | 7796 ft | 266 kts | 325° |
| 2026-04-15 16:30 | 37.43290 | -5.37447 | 7458 ft | 263 kts | 305° |
| 2026-04-15 16:31 | 37.44088 | -5.39518 | 7031 ft | 264 kts | 288° |
| 2026-04-15 16:31 | 37.44325 | -5.41779 | 6617 ft | 266 kts | 266° |
| 2026-04-15 16:31 | 37.44056 | -5.44076 | 6244 ft | 264 kts | 262° |
| 2026-04-15 16:31 | 37.43749 | -5.46348 | 5833 ft | 263 kts | 262° |
| 2026-04-15 16:32 | 37.43439 | -5.48610 | 5445 ft | 261 kts | 261° |
| 2026-04-15 16:32 | 37.43136 | -5.50828 | 5072 ft | 259 kts | 262° |
| 2026-04-15 16:32 | 37.42834 | -5.53033 | 4943 ft | 243 kts | 261° |
| 2026-04-15 16:32 | 37.42562 | -5.55032 | 4845 ft | 227 kts | 261° |
| 2026-04-15 16:33 | 37.42303 | -5.56934 | 4712 ft | 213 kts | 262° |
| 2026-04-15 16:33 | 37.42068 | -5.58758 | 4453 ft | 209 kts | 264° |
| 2026-04-15 16:33 | 37.41970 | -5.60565 | 4208 ft | 206 kts | 269° |
| 2026-04-15 16:33 | 37.41946 | -5.62380 | 3949 ft | 207 kts | 270° |
| 2026-04-15 16:34 | 37.41934 | -5.64181 | 3687 ft | 209 kts | 270° |
| 2026-04-15 16:34 | 37.41923 | -5.66011 | 3421 ft | 209 kts | 270° |
| 2026-04-15 16:34 | 37.41912 | -5.67850 | 3123 ft | 210 kts | 270° |
| 2026-04-15 16:34 | 37.41901 | -5.69685 | 2854 ft | 208 kts | 270° |
| 2026-04-15 16:35 | 37.41888 | -5.71503 | 2575 ft | 207 kts | 270° |
| 2026-04-15 16:35 | 37.41879 | -5.73309 | 2310 ft | 206 kts | 270° |
| 2026-04-15 16:35 | 37.41869 | -5.75102 | 2037 ft | 203 kts | 270° |
| 2026-04-15 16:35 | 37.41856 | -5.76853 | 1766 ft | 196 kts | 270° |
| 2026-04-15 16:36 | 37.41846 | -5.78551 | 1514 ft | 191 kts | 271° |
| 2026-04-15 16:36 | 37.41841 | -5.80154 | 1298 ft | 178 kts | 270° |
| 2026-04-15 16:36 | 37.41833 | -5.81662 | 1044 ft | 167 kts | 271° |
| 2026-04-15 16:36 | 37.41827 | -5.83115 | 777 ft | 166 kts | 270° |
| 2026-04-15 16:37 | 37.41818 | -5.84562 | 526 ft | 164 kts | 269° |
| 2026-04-15 16:37 | 37.41816 | -5.85995 | 338 ft | 165 kts | 269° |
| 2026-04-15 16:37 | 37.41807 | -5.87440 | 158 ft | 164 kts | 268° |
| 2026-04-15 16:37 | 37.41799 | -5.88785 | 107 ft | 132 kts | 269° |
| 2026-04-15 16:38 | 37.41794 | -5.89691 | 104 ft | 74 kts | 269° |
| 2026-04-15 16:38 | 37.41791 | -5.90196 | 107 ft | 32 kts | 270° |
| 2026-04-15 16:38 | 37.41886 | -5.90307 | 109 ft | 19 kts | 357° |
| 2026-04-15 16:38 | 37.41978 | -5.90261 | 110 ft | 12 kts | 73° |
| 2026-04-15 16:39 | 37.41980 | -5.90156 | 109 ft | 12 kts | 89° |
| 2026-04-15 16:39 | 37.42027 | -5.90076 | 107 ft | 13 kts | 32° |
| 2026-04-15 16:39 | 37.42070 | -5.89984 | 105 ft | 12 kts | 40° |
| 2026-04-15 16:39 | 37.42151 | -5.89941 | 103 ft | 13 kts | 355° |
| 2026-04-15 16:40 | 37.42203 | -5.89957 | 101 ft | 3 kts | 345° |
| 2026-04-15 16:40 | 37.42206 | -5.89958 | 101 ft | 0 kts | 344° |